createdAt,value
2019-05-02T00:00:53.021Z,57.13
2019-05-02T00:01:39.916Z,56.80
2019-05-02T00:02:14.243Z,56.70
2019-05-02T00:02:47.391Z,55.78
2019-05-02T00:03:22.283Z,55.58
2019-05-02T00:03:56.205Z,57.15
2019-05-02T00:04:29.239Z,57.85
2019-05-02T00:05:04.069Z,58.35
2019-05-02T00:05:37.356Z,59.48
2019-05-02T00:06:11.210Z,59.88
2019-05-02T00:07:02.677Z,59.38
2019-05-02T00:07:35.677Z,58.73
2019-05-02T00:08:09.403Z,58.38
2019-05-02T00:08:42.626Z,58.30
2019-05-02T00:09:15.721Z,58.48
2019-05-02T00:09:50.439Z,59.85
2019-05-02T00:10:24.976Z,58.50
2019-05-02T00:10:58.900Z,58.13
2019-05-02T00:11:32.035Z,59.10
2019-05-02T00:12:08.318Z,58.90
2019-05-02T00:12:44.372Z,57.85
2019-05-02T00:13:18.197Z,59.18
2019-05-02T00:13:51.647Z,59.38
2019-05-02T00:14:25.451Z,60.40
2019-05-02T00:15:01.836Z,59.67
2019-05-02T00:15:38.225Z,58.90
2019-05-02T00:16:09.181Z,58.92
2019-05-02T00:16:45.253Z,59.53
2019-05-02T00:17:25.666Z,58.25
2019-05-02T00:17:56.805Z,60.98
2019-05-02T00:18:31.839Z,60.67
2019-05-02T00:19:09.275Z,60.03
2019-05-02T00:19:45.007Z,59.58
2019-05-02T00:20:21.055Z,59.18
2019-05-02T00:20:57.121Z,59.60
2019-05-02T00:21:28.529Z,60.78
2019-05-02T00:22:02.203Z,58.10
2019-05-02T00:22:35.600Z,57.53
2019-05-02T00:23:09.033Z,59.93
2019-05-02T00:23:42.068Z,58.60
2019-05-02T00:24:15.095Z,58.75
2019-05-02T00:24:48.677Z,59.93
2019-05-02T00:25:21.809Z,57.50
2019-05-02T00:25:54.853Z,58.40
2019-05-02T00:26:28.105Z,58.38
2019-05-02T00:27:03.154Z,57.78
2019-05-02T00:27:37.689Z,58.17
2019-05-02T00:28:12.374Z,58.10
2019-05-02T00:28:48.044Z,56.37
2019-05-02T00:29:23.818Z,56.85
2019-05-02T00:29:58.840Z,58.15
2019-05-02T00:30:34.656Z,57.78
2019-05-02T00:31:11.599Z,57.53
2019-05-02T00:31:46.872Z,57.48
2019-05-02T00:32:22.470Z,56.85
2019-05-02T00:32:58.289Z,55.43
2019-05-02T00:33:29.213Z,55.10
2019-05-02T00:34:03.793Z,56.02
2019-05-02T00:34:36.798Z,55.20
2019-05-02T00:35:12.089Z,55.12
2019-05-02T00:35:46.185Z,56.75
2019-05-02T00:36:20.122Z,55.73
2019-05-02T00:36:56.295Z,55.80
2019-05-02T00:37:29.459Z,55.50
2019-05-02T00:38:03.777Z,54.50
2019-05-02T00:38:38.482Z,55.12
2019-05-02T00:39:13.946Z,54.50
2019-05-02T00:39:49.177Z,55.43
2019-05-02T00:40:25.615Z,55.60
2019-05-02T00:41:02.182Z,56.33
2019-05-02T00:41:38.273Z,56.00
2019-05-02T00:42:12.842Z,55.50
2019-05-02T00:42:43.357Z,56.90
2019-05-02T00:43:16.439Z,55.70
2019-05-02T00:43:49.401Z,56.92
2019-05-02T00:44:22.468Z,56.75
2019-05-02T00:44:55.842Z,58.05
2019-05-02T00:45:29.063Z,55.38
2019-05-02T00:46:02.345Z,55.52
2019-05-02T00:46:36.206Z,55.95
2019-05-02T00:47:33.057Z,55.08
2019-05-02T00:48:12.085Z,53.50
2019-05-02T00:48:54.141Z,53.80
2019-05-02T00:49:30.875Z,55.10
2019-05-02T00:50:11.180Z,54.98
2019-05-02T00:50:45.284Z,56.85
2019-05-02T00:51:17.605Z,56.18
2019-05-02T00:51:50.641Z,55.73
2019-05-02T00:52:23.611Z,56.23
2019-05-02T00:52:56.495Z,55.48
2019-05-02T00:53:29.579Z,56.55
2019-05-02T00:54:02.697Z,56.75
2019-05-02T00:54:35.748Z,56.10
2019-05-02T00:55:08.963Z,59.55
2019-05-02T00:55:42.015Z,57.75
2019-05-02T00:56:16.573Z,60.43
2019-05-02T00:56:49.515Z,62.23
2019-05-02T00:57:22.477Z,60.75
2019-05-02T00:57:56.925Z,62.08
2019-05-02T00:58:31.950Z,61.50
2019-05-02T00:59:07.466Z,60.38
2019-05-02T00:59:42.462Z,59.90
2019-05-02T01:00:18.327Z,61.13
2019-05-02T01:01:12.875Z,60.23
2019-05-02T01:02:05.311Z,59.50
2019-05-02T01:02:50.536Z,58.33
2019-05-02T01:03:25.493Z,60.83
2019-05-02T01:04:01.753Z,59.90
2019-05-02T01:04:37.130Z,59.67
2019-05-02T01:05:10.335Z,59.65
2019-05-02T01:05:43.429Z,60.50
2019-05-02T01:06:17.083Z,61.15
2019-05-02T01:06:50.833Z,60.63
2019-05-02T01:07:25.458Z,61.88
2019-05-02T01:08:01.220Z,61.25
2019-05-02T01:08:35.577Z,60.50
2019-05-02T01:09:10.998Z,61.70
2019-05-02T01:09:46.830Z,61.35
2019-05-02T01:10:21.208Z,61.90
2019-05-02T01:10:56.955Z,61.58
2019-05-02T01:11:32.195Z,62.13
2019-05-02T01:12:08.432Z,61.08
2019-05-02T01:12:44.386Z,61.28
2019-05-02T01:13:19.206Z,60.70
2019-05-02T01:13:55.863Z,61.37
2019-05-02T01:14:31.516Z,62.20
2019-05-02T01:15:08.481Z,61.68
2019-05-02T01:15:43.674Z,60.08
2019-05-02T01:16:15.235Z,60.15
2019-05-02T01:16:49.343Z,60.85
2019-05-02T01:17:26.166Z,61.45
2019-05-02T01:18:01.032Z,62.33
2019-05-02T01:18:37.119Z,61.85
2019-05-02T01:19:12.186Z,60.60
2019-05-02T01:19:47.207Z,60.63
2019-05-02T01:20:22.139Z,60.35
2019-05-02T01:20:58.113Z,61.02
2019-05-02T01:21:33.948Z,60.92
2019-05-02T01:22:05.291Z,62.53
2019-05-02T01:22:38.563Z,62.20
2019-05-02T01:23:12.714Z,63.25
2019-05-02T01:23:45.770Z,62.85
2019-05-02T01:24:18.767Z,62.48
2019-05-02T01:24:54.511Z,63.63
2019-05-02T01:25:27.635Z,62.45
2019-05-02T01:26:01.119Z,62.30
2019-05-02T01:26:38.342Z,61.88
2019-05-02T01:27:36.044Z,62.10
2019-05-02T01:28:21.661Z,61.83
2019-05-02T01:29:16.887Z,61.10
2019-05-02T01:30:15.450Z,60.48
2019-05-02T01:31:06.786Z,60.60
2019-05-02T01:31:49.875Z,62.48
2019-05-02T01:32:30.108Z,61.40
2019-05-02T01:33:15.091Z,61.02
2019-05-02T01:34:01.649Z,60.38
2019-05-02T01:34:49.088Z,61.75
2019-05-02T01:35:31.635Z,59.73
2019-05-02T01:36:13.851Z,59.23
2019-05-02T01:36:53.085Z,60.25
2019-05-02T01:37:31.315Z,58.90
2019-05-02T01:38:36.451Z,60.58
2019-05-02T01:39:10.496Z,60.48
2019-05-02T01:39:44.101Z,59.13
2019-05-02T01:40:19.003Z,58.78
2019-05-02T01:40:54.530Z,58.98
2019-05-02T01:41:29.366Z,59.05
2019-05-02T01:42:04.290Z,58.98
2019-05-02T01:42:40.061Z,58.80
2019-05-02T01:43:28.051Z,57.40
2019-05-02T01:44:01.652Z,58.25
2019-05-02T01:44:36.430Z,59.20
2019-05-02T01:45:11.283Z,57.13
2019-05-02T01:45:46.569Z,58.58
2019-05-02T01:46:22.386Z,57.73
2019-05-02T01:46:58.805Z,56.68
2019-05-02T01:47:34.192Z,57.05
2019-05-02T01:48:05.027Z,57.40
2019-05-02T01:48:40.048Z,57.20
2019-05-02T01:49:16.833Z,58.35
2019-05-02T01:49:51.887Z,57.27
2019-05-02T01:50:23.591Z,57.10
2019-05-02T01:50:56.783Z,57.58
2019-05-02T01:51:30.493Z,57.23
2019-05-02T01:52:04.865Z,57.85
2019-05-02T01:52:37.768Z,57.98
2019-05-02T01:53:10.713Z,57.48
2019-05-02T01:53:43.731Z,57.90
2019-05-02T01:54:16.835Z,56.85
2019-05-02T01:54:49.747Z,57.30
2019-05-02T01:55:22.699Z,57.98
2019-05-02T01:55:57.825Z,57.75
2019-05-02T01:56:33.045Z,57.30
2019-05-02T01:57:08.717Z,57.48
2019-05-02T01:57:44.834Z,58.38
2019-05-02T01:58:20.859Z,58.00
2019-05-02T01:58:53.132Z,57.25
2019-05-02T01:59:29.114Z,56.65
2019-05-02T02:00:04.228Z,57.03
2019-05-02T02:00:35.877Z,57.53
2019-05-02T02:01:08.854Z,56.70
2019-05-02T02:01:41.871Z,57.00
2019-05-02T02:02:15.019Z,56.10
2019-05-02T02:02:47.820Z,56.33
2019-05-02T02:03:20.839Z,57.48
2019-05-02T02:03:53.949Z,56.00
2019-05-02T02:04:27.039Z,55.73
2019-05-02T02:05:00.163Z,56.88
2019-05-02T02:05:33.470Z,56.02
2019-05-02T02:06:07.946Z,56.10
2019-05-02T02:06:43.356Z,55.88
2019-05-02T02:07:20.088Z,57.43
2019-05-02T02:07:55.462Z,56.85
2019-05-02T02:08:32.581Z,56.20
2019-05-02T02:09:08.354Z,57.03
2019-05-02T02:09:44.135Z,57.27
2019-05-02T02:10:19.808Z,57.27
2019-05-02T02:10:58.288Z,57.78
2019-05-02T02:11:33.744Z,57.58
2019-05-02T02:12:09.712Z,57.45
2019-05-02T02:12:56.486Z,56.23
2019-05-02T02:13:18.885Z,56.37
2019-05-02T02:13:57.868Z,56.77
2019-05-02T02:14:53.248Z,56.63
2019-05-02T02:15:29.055Z,56.85
2019-05-02T02:16:04.417Z,56.48
2019-05-02T02:16:39.263Z,57.53
2019-05-02T02:17:15.607Z,57.30
2019-05-02T02:17:46.773Z,56.85
2019-05-02T02:18:27.143Z,56.05
2019-05-02T02:19:04.133Z,55.23
2019-05-02T02:19:43.943Z,56.23
2019-05-02T02:20:18.921Z,56.15
2019-05-02T02:21:05.855Z,56.10
2019-05-02T02:21:51.738Z,57.17
2019-05-02T02:22:39.273Z,56.90
2019-05-02T02:23:22.071Z,55.78
2019-05-02T02:24:21.155Z,57.45
2019-05-02T02:25:10.117Z,56.73
2019-05-02T02:25:49.025Z,57.53
2019-05-02T02:26:22.333Z,57.65
2019-05-02T02:26:55.355Z,57.58
2019-05-02T02:27:28.285Z,56.83
2019-05-02T02:28:01.353Z,57.78
2019-05-02T02:28:34.441Z,59.15
2019-05-02T02:29:09.204Z,57.58
2019-05-02T02:29:43.937Z,58.23
2019-05-02T02:30:24.539Z,58.45
2019-05-02T02:30:57.847Z,56.92
2019-05-02T02:31:30.339Z,57.85
2019-05-02T02:32:03.454Z,57.35
2019-05-02T02:32:36.352Z,58.13
2019-05-02T02:33:10.034Z,56.88
2019-05-02T02:33:47.648Z,56.55
2019-05-02T02:34:21.348Z,57.17
2019-05-02T02:34:53.031Z,57.85
2019-05-02T02:35:26.081Z,58.58
2019-05-02T02:35:59.209Z,58.33
2019-05-02T02:36:34.739Z,57.70
2019-05-02T02:37:13.027Z,60.20
2019-05-02T02:37:52.351Z,59.58
2019-05-02T02:38:17.145Z,59.80
2019-05-02T02:38:50.242Z,58.25
2019-05-02T02:39:24.455Z,58.60
2019-05-02T02:39:57.383Z,59.95
2019-05-02T02:40:33.701Z,59.73
2019-05-02T02:41:06.432Z,58.98
2019-05-02T02:41:45.192Z,58.78
2019-05-02T02:42:15.331Z,58.30
2019-05-02T02:42:48.384Z,59.35
2019-05-02T02:43:33.626Z,58.02
2019-05-02T02:44:13.102Z,59.13
2019-05-02T02:44:54.074Z,60.00
2019-05-02T02:45:34.600Z,58.08
2019-05-02T02:46:13.625Z,59.20
2019-05-02T02:46:46.865Z,59.42
2019-05-02T02:47:21.275Z,59.15
2019-05-02T02:47:59.945Z,59.05
2019-05-02T02:48:33.885Z,59.45
2019-05-02T02:49:06.106Z,59.48
2019-05-02T02:49:39.318Z,58.75
2019-05-02T02:50:12.346Z,60.75
2019-05-02T02:50:47.028Z,59.67
2019-05-02T02:51:24.001Z,60.98
2019-05-02T02:51:58.099Z,59.98
2019-05-02T02:52:29.801Z,59.35
2019-05-02T02:53:02.885Z,59.42
2019-05-02T02:53:36.165Z,59.33
2019-05-02T02:54:12.688Z,60.60
2019-05-02T02:54:45.766Z,59.98
2019-05-02T02:55:22.046Z,60.25
2019-05-02T02:56:00.780Z,61.88
2019-05-02T02:56:34.537Z,60.58
2019-05-02T02:57:04.169Z,59.93
2019-05-02T02:57:37.363Z,61.85
2019-05-02T02:58:10.512Z,60.85
2019-05-02T02:58:46.047Z,59.90
2019-05-02T02:59:26.239Z,60.23
2019-05-02T03:00:06.388Z,61.10
2019-05-02T03:00:28.652Z,60.78
2019-05-02T03:01:01.727Z,62.53
2019-05-02T03:01:34.784Z,62.43
2019-05-02T03:02:10.204Z,63.35
2019-05-02T03:02:48.320Z,63.33
2019-05-02T03:03:20.820Z,61.92
2019-05-02T03:03:52.789Z,62.00
2019-05-02T03:04:25.831Z,61.63
2019-05-02T03:04:59.766Z,62.55
2019-05-02T03:05:33.330Z,61.15
2019-05-02T03:06:08.131Z,60.75
2019-05-02T03:06:45.191Z,61.40
2019-05-02T03:07:24.117Z,62.03
2019-05-02T03:07:51.410Z,59.85
2019-05-02T03:08:24.587Z,60.60
2019-05-02T03:08:57.806Z,59.85
2019-05-02T03:09:30.806Z,62.90
2019-05-02T03:10:06.055Z,62.73
2019-05-02T03:10:40.014Z,62.15
2019-05-02T03:11:22.425Z,61.92
2019-05-02T03:12:09.798Z,60.85
2019-05-02T03:13:01.192Z,62.27
2019-05-02T03:14:07.480Z,61.68
2019-05-02T03:14:47.272Z,61.02
2019-05-02T03:15:21.146Z,60.48
2019-05-02T03:16:00.475Z,61.28
2019-05-02T03:16:30.868Z,61.80
2019-05-02T03:17:03.833Z,62.85
2019-05-02T03:17:36.844Z,63.35
2019-05-02T03:18:09.867Z,62.85
2019-05-02T03:18:43.310Z,62.80
2019-05-02T03:19:21.273Z,62.27
2019-05-02T03:19:54.524Z,63.92
2019-05-02T03:20:26.822Z,63.52
2019-05-02T03:20:59.814Z,63.05
2019-05-02T03:21:33.048Z,62.33
2019-05-02T03:22:06.052Z,64.22
2019-05-02T03:22:41.923Z,64.15
2019-05-02T03:23:15.305Z,63.75
2019-05-02T03:23:49.180Z,63.70
2019-05-02T03:24:24.095Z,65.65
2019-05-02T03:24:57.049Z,68.28
2019-05-02T03:25:48.618Z,67.12
2019-05-02T03:26:08.139Z,65.55
2019-05-02T03:26:39.869Z,66.37
2019-05-02T03:27:13.027Z,68.28
2019-05-02T03:27:46.513Z,68.55
2019-05-02T03:28:20.988Z,69.87
2019-05-02T03:28:58.651Z,67.15
2019-05-02T03:29:41.407Z,67.78
2019-05-02T03:30:05.214Z,66.20
2019-05-02T03:30:38.313Z,66.92
2019-05-02T03:31:23.722Z,68.30
2019-05-02T03:31:47.667Z,67.22
2019-05-02T03:32:31.342Z,69.53
2019-05-02T03:33:06.491Z,68.28
2019-05-02T03:33:30.622Z,68.70
2019-05-02T03:34:03.672Z,68.42
2019-05-02T03:34:47.177Z,68.70
2019-05-02T03:35:18.466Z,69.58
2019-05-02T03:35:49.243Z,67.58
2019-05-02T03:36:35.350Z,66.65
2019-05-02T03:37:03.204Z,68.10
2019-05-02T03:37:33.095Z,68.60
2019-05-02T03:38:06.215Z,66.92
2019-05-02T03:38:40.223Z,67.70
2019-05-02T03:39:16.943Z,69.10
2019-05-02T03:39:57.155Z,69.55
2019-05-02T03:40:23.782Z,69.65
2019-05-02T03:40:56.865Z,68.85
2019-05-02T03:41:31.379Z,67.62
2019-05-02T03:42:05.268Z,66.67
2019-05-02T03:42:44.813Z,69.53
2019-05-02T03:43:19.272Z,68.90
2019-05-02T03:43:50.754Z,69.67
2019-05-02T03:44:25.960Z,68.47
2019-05-02T03:45:04.340Z,70.37
2019-05-02T03:45:40.195Z,69.90
2019-05-02T03:46:13.561Z,70.47
2019-05-02T03:46:44.473Z,69.27
2019-05-02T03:47:17.615Z,69.10
2019-05-02T03:47:50.762Z,68.02
2019-05-02T03:48:25.574Z,70.35
2019-05-02T03:49:06.835Z,70.78
2019-05-02T03:49:33.997Z,68.62
2019-05-02T03:50:09.416Z,68.25
2019-05-02T03:50:42.175Z,68.57
2019-05-02T03:51:21.487Z,69.53
2019-05-02T03:51:56.089Z,68.80
2019-05-02T03:52:25.427Z,69.92
2019-05-02T03:52:58.875Z,69.97
2019-05-02T03:53:32.445Z,67.82
2019-05-02T03:54:10.005Z,69.22
2019-05-02T03:54:48.992Z,67.60
2019-05-02T03:55:15.581Z,69.00
2019-05-02T03:55:48.571Z,67.95
2019-05-02T03:56:21.616Z,67.27
2019-05-02T03:56:54.734Z,68.10
2019-05-02T03:57:35.659Z,66.25
2019-05-02T03:58:13.443Z,67.80
2019-05-02T03:58:38.871Z,67.67
2019-05-02T03:59:11.875Z,67.62
2019-05-02T03:59:45.018Z,67.60
2019-05-02T04:00:21.077Z,68.12
2019-05-02T04:01:00.324Z,69.25
2019-05-02T04:01:34.796Z,69.22
2019-05-02T04:02:04.316Z,70.22
2019-05-02T04:02:37.417Z,70.42
2019-05-02T04:03:10.744Z,71.82
2019-05-02T04:03:46.096Z,71.20
2019-05-02T04:04:21.044Z,72.15
2019-05-02T04:05:00.634Z,72.65
2019-05-02T04:05:33.863Z,72.32
2019-05-02T04:06:14.118Z,72.12
2019-05-02T04:06:43.228Z,73.87
2019-05-02T04:07:16.668Z,74.67
2019-05-02T04:07:50.176Z,74.85
2019-05-02T04:08:23.928Z,73.45
2019-05-02T04:09:00.029Z,72.37
2019-05-02T04:09:41.892Z,74.27
2019-05-02T04:10:26.873Z,71.42
2019-05-02T04:11:24.201Z,73.37
2019-05-02T04:11:57.239Z,71.97
2019-05-02T04:12:32.861Z,73.47
2019-05-02T04:13:05.593Z,72.70
2019-05-02T04:13:39.305Z,72.03
2019-05-02T04:14:15.913Z,73.50
2019-05-02T04:14:47.389Z,72.87
2019-05-02T04:15:20.768Z,71.97
2019-05-02T04:15:53.854Z,72.05
2019-05-02T04:16:28.735Z,72.15
2019-05-02T04:17:01.870Z,73.62
2019-05-02T04:17:37.220Z,71.57
2019-05-02T04:18:15.390Z,71.28
2019-05-02T04:18:54.742Z,71.72
2019-05-02T04:19:20.498Z,71.47
2019-05-02T04:19:53.477Z,71.15
2019-05-02T04:20:26.481Z,72.17
2019-05-02T04:20:59.526Z,72.80
2019-05-02T04:21:34.066Z,71.97
2019-05-02T04:22:11.484Z,71.60
2019-05-02T04:22:48.972Z,71.07
2019-05-02T04:23:21.336Z,73.20
2019-05-02T04:23:53.709Z,71.42
2019-05-02T04:24:26.870Z,72.90
2019-05-02T04:24:59.918Z,70.97
2019-05-02T04:25:34.025Z,72.40
2019-05-02T04:26:12.709Z,73.47
2019-05-02T04:26:52.483Z,73.83
2019-05-02T04:27:18.830Z,73.83
2019-05-02T04:27:51.879Z,75.30
2019-05-02T04:28:24.747Z,74.25
2019-05-02T04:28:57.811Z,72.60
2019-05-02T04:29:33.057Z,73.15
2019-05-02T04:30:11.386Z,73.45
2019-05-02T04:30:45.192Z,73.52
2019-05-02T04:31:16.657Z,73.92
2019-05-02T04:31:49.568Z,73.25
2019-05-02T04:32:22.637Z,70.55
2019-05-02T04:32:56.116Z,70.47
2019-05-02T04:33:34.598Z,72.53
2019-05-02T04:34:13.690Z,72.70
2019-05-02T04:34:40.389Z,72.25
2019-05-02T04:35:13.570Z,71.42
2019-05-02T04:35:46.569Z,72.75
2019-05-02T04:36:19.656Z,70.95
2019-05-02T04:37:01.567Z,71.20
2019-05-02T04:37:34.368Z,72.50
2019-05-02T04:38:12.130Z,73.07
2019-05-02T04:38:46.974Z,70.80
2019-05-02T04:39:18.337Z,70.65
2019-05-02T04:39:49.350Z,71.35
2019-05-02T04:40:24.760Z,72.27
2019-05-02T04:40:59.215Z,70.22
2019-05-02T04:41:34.351Z,71.37
2019-05-02T04:42:13.321Z,71.40
2019-05-02T04:42:42.415Z,71.05
2019-05-02T04:43:18.220Z,68.45
2019-05-02T04:43:57.454Z,68.70
2019-05-02T04:44:32.253Z,68.90
2019-05-02T04:45:20.746Z,70.62
2019-05-02T04:45:51.623Z,71.57
2019-05-02T04:46:18.052Z,70.90
2019-05-02T04:46:48.842Z,71.95
2019-05-02T04:47:22.142Z,71.80
2019-05-02T04:48:00.986Z,70.00
2019-05-02T04:48:34.867Z,69.05
2019-05-02T04:49:09.028Z,69.97
2019-05-02T04:49:41.373Z,69.97
2019-05-02T04:50:24.597Z,69.80
2019-05-02T04:50:51.659Z,68.97
2019-05-02T04:51:27.633Z,70.65
2019-05-02T04:52:06.321Z,70.35
2019-05-02T04:52:40.819Z,70.67
2019-05-02T04:53:09.375Z,69.95
2019-05-02T04:53:45.389Z,69.45
2019-05-02T04:54:25.785Z,70.42
2019-05-02T04:54:52.232Z,71.67
2019-05-02T04:55:30.241Z,70.92
2019-05-02T04:56:04.406Z,70.30
2019-05-02T04:56:42.085Z,71.25
2019-05-02T04:57:10.752Z,70.70
2019-05-02T04:57:47.074Z,70.83
2019-05-02T04:58:27.692Z,69.62
2019-05-02T04:58:53.542Z,69.05
2019-05-02T04:59:28.433Z,70.92
2019-05-02T05:00:06.242Z,70.92
2019-05-02T05:00:38.983Z,70.75
2019-05-02T05:01:11.416Z,71.47
2019-05-02T05:01:49.784Z,72.12
2019-05-02T05:02:21.313Z,72.10
2019-05-02T05:02:54.102Z,71.75
2019-05-02T05:03:28.492Z,70.30
2019-05-02T05:04:03.066Z,71.22
2019-05-02T05:04:42.420Z,70.97
2019-05-02T05:05:17.257Z,72.03
2019-05-02T05:05:48.240Z,72.30
2019-05-02T05:06:21.539Z,71.47
2019-05-02T05:06:58.144Z,71.82
2019-05-02T05:07:31.069Z,72.22
2019-05-02T05:08:07.773Z,71.45
2019-05-02T05:08:41.709Z,73.30
2019-05-02T05:09:15.208Z,71.60
2019-05-02T05:09:57.048Z,72.45
2019-05-02T05:10:24.567Z,72.58
2019-05-02T05:10:57.617Z,73.60
2019-05-02T05:11:30.525Z,71.97
2019-05-02T05:12:03.733Z,70.87
2019-05-02T05:12:38.115Z,71.35
2019-05-02T05:13:12.053Z,73.28
2019-05-02T05:13:47.750Z,72.32
2019-05-02T05:14:20.295Z,74.25
2019-05-02T05:14:53.279Z,71.72
2019-05-02T05:15:37.303Z,72.85
2019-05-02T05:16:02.889Z,72.27
2019-05-02T05:16:37.657Z,71.33
2019-05-02T05:17:11.713Z,72.00
2019-05-02T05:17:44.883Z,73.00
2019-05-02T05:18:18.869Z,72.22
2019-05-02T05:18:53.299Z,72.10
2019-05-02T05:19:30.985Z,72.37
2019-05-02T05:20:10.677Z,71.45
2019-05-02T05:20:38.509Z,71.22
2019-05-02T05:21:11.091Z,69.85
2019-05-02T05:21:44.165Z,69.40
2019-05-02T05:22:18.522Z,71.20
2019-05-02T05:22:51.659Z,70.20
2019-05-02T05:23:42.842Z,70.78
2019-05-02T05:24:42.579Z,71.53
2019-05-02T05:25:21.392Z,69.90
2019-05-02T05:26:03.429Z,69.85
2019-05-02T05:26:33.913Z,69.60
2019-05-02T05:27:08.366Z,70.75
2019-05-02T05:27:41.725Z,70.42
2019-05-02T05:28:14.629Z,69.45
2019-05-02T05:28:47.738Z,70.28
2019-05-02T05:29:23.239Z,70.25
2019-05-02T05:29:59.500Z,69.77
2019-05-02T05:30:30.461Z,70.05
2019-05-02T05:31:03.631Z,70.40
2019-05-02T05:31:38.212Z,69.50
2019-05-02T05:32:11.313Z,69.10
2019-05-02T05:32:44.653Z,69.07
2019-05-02T05:33:18.255Z,70.80
2019-05-02T05:33:51.522Z,70.40
2019-05-02T05:34:28.543Z,71.05
2019-05-02T05:35:03.305Z,71.62
2019-05-02T05:35:38.526Z,72.22
2019-05-02T05:36:11.834Z,73.30
2019-05-02T05:36:44.887Z,72.62
2019-05-02T05:37:18.912Z,71.82
2019-05-02T05:37:53.329Z,74.25
2019-05-02T05:38:28.666Z,73.92
2019-05-02T05:39:03.035Z,75.50
2019-05-02T05:39:38.121Z,74.77
2019-05-02T05:40:11.528Z,77.37
2019-05-02T05:40:44.571Z,75.60
2019-05-02T05:41:22.993Z,75.08
2019-05-02T05:41:53.381Z,75.62
2019-05-02T05:42:29.971Z,77.42
2019-05-02T05:43:02.132Z,77.32
2019-05-02T05:43:37.978Z,76.47
2019-05-02T05:44:11.145Z,76.87
2019-05-02T05:44:44.203Z,78.97
2019-05-02T05:45:17.487Z,78.33
2019-05-02T05:45:55.110Z,77.08
2019-05-02T05:46:27.781Z,76.28
2019-05-02T05:47:00.659Z,75.85
2019-05-02T05:47:33.715Z,76.00
2019-05-02T05:48:08.304Z,75.85
2019-05-02T05:48:41.563Z,77.50
2019-05-02T05:49:18.409Z,76.97
2019-05-02T05:49:52.310Z,75.72
2019-05-02T05:50:24.565Z,76.15
2019-05-02T05:50:58.017Z,77.10
2019-05-02T05:51:31.211Z,76.22
2019-05-02T05:52:04.333Z,76.85
2019-05-02T05:52:38.853Z,76.42
2019-05-02T05:53:16.528Z,76.15
2019-05-02T05:53:47.885Z,76.22
2019-05-02T05:54:22.051Z,76.33
2019-05-02T05:54:55.069Z,73.47
2019-05-02T05:55:28.477Z,75.05
2019-05-02T05:56:03.915Z,73.90
2019-05-02T05:56:42.187Z,73.95
2019-05-02T05:57:12.172Z,73.40
2019-05-02T05:57:49.718Z,74.62
2019-05-02T05:58:21.867Z,75.45
2019-05-02T05:58:58.645Z,74.32
2019-05-02T05:59:32.075Z,75.28
2019-05-02T06:00:12.007Z,73.62
2019-05-02T06:00:41.059Z,73.17
2019-05-02T06:01:20.095Z,72.80
2019-05-02T06:01:51.644Z,73.10
2019-05-02T06:02:24.727Z,73.00
2019-05-02T06:03:10.322Z,74.03
2019-05-02T06:03:34.068Z,73.20
2019-05-02T06:04:08.875Z,71.85
2019-05-02T06:04:42.141Z,71.00
2019-05-02T06:05:17.312Z,73.28
2019-05-02T06:05:50.301Z,72.30
2019-05-02T06:06:24.559Z,73.70
2019-05-02T06:06:59.398Z,71.95
2019-05-02T06:07:41.076Z,70.37
2019-05-02T06:08:09.470Z,71.57
2019-05-02T06:08:42.453Z,70.70
2019-05-02T06:09:15.576Z,73.40
2019-05-02T06:09:48.549Z,72.72
2019-05-02T06:10:21.491Z,71.42
2019-05-02T06:10:55.143Z,71.12
2019-05-02T06:11:28.239Z,71.65
2019-05-02T06:12:01.403Z,71.05
2019-05-02T06:12:35.578Z,70.55
2019-05-02T06:13:11.096Z,72.35
2019-05-02T06:13:48.736Z,71.67
2019-05-02T06:14:19.947Z,71.92
2019-05-02T06:14:56.385Z,70.40
2019-05-02T06:15:28.533Z,72.15
2019-05-02T06:16:03.228Z,69.35
2019-05-02T06:16:36.848Z,69.70
2019-05-02T06:17:09.891Z,70.97
2019-05-02T06:17:43.016Z,70.83
2019-05-02T06:18:16.047Z,71.17
2019-05-02T06:18:49.491Z,70.30
2019-05-02T06:19:24.209Z,70.62
2019-05-02T06:19:58.355Z,71.17
2019-05-02T06:20:31.970Z,70.00
2019-05-02T06:21:08.671Z,70.72
2019-05-02T06:21:45.102Z,70.83
2019-05-02T06:22:16.059Z,70.22
2019-05-02T06:22:50.168Z,70.80
2019-05-02T06:23:23.199Z,70.37
2019-05-02T06:23:56.154Z,70.12
2019-05-02T06:24:29.315Z,70.75
2019-05-02T06:25:09.453Z,71.50
2019-05-02T06:25:42.635Z,68.40
2019-05-02T06:26:16.105Z,69.22
2019-05-02T06:26:51.568Z,69.17
2019-05-02T06:27:26.113Z,68.87
2019-05-02T06:28:00.141Z,69.80
2019-05-02T06:28:36.334Z,70.28
2019-05-02T06:29:13.022Z,70.12
2019-05-02T06:29:43.943Z,71.90
2019-05-02T06:30:17.701Z,69.32
2019-05-02T06:30:50.801Z,70.05
2019-05-02T06:31:23.869Z,70.87
2019-05-02T06:32:01.117Z,69.90
2019-05-02T06:32:34.145Z,70.32
2019-05-02T06:33:07.251Z,70.37
2019-05-02T06:33:40.426Z,70.25
2019-05-02T06:34:13.343Z,71.15
2019-05-02T06:34:47.608Z,71.65
2019-05-02T06:35:21.369Z,71.65
2019-05-02T06:36:00.919Z,70.08
2019-05-02T06:36:31.945Z,68.35
2019-05-02T06:37:08.215Z,70.15
2019-05-02T06:37:40.704Z,69.25
2019-05-02T06:38:13.945Z,70.70
2019-05-02T06:38:47.260Z,70.80
2019-05-02T06:39:20.286Z,69.53
2019-05-02T06:39:53.355Z,70.50
2019-05-02T06:40:26.507Z,67.58
2019-05-02T06:40:59.614Z,70.10
2019-05-02T06:41:32.667Z,69.55
2019-05-02T06:42:05.841Z,68.42
2019-05-02T06:42:38.799Z,69.87
2019-05-02T06:43:12.033Z,68.95
2019-05-02T06:43:46.570Z,70.08
2019-05-02T06:44:23.981Z,69.95
2019-05-02T06:44:59.307Z,68.67
2019-05-02T06:45:32.361Z,68.22
2019-05-02T06:46:15.619Z,67.40
2019-05-02T06:47:04.387Z,68.55
2019-05-02T06:47:36.066Z,67.03
2019-05-02T06:48:16.882Z,67.92
2019-05-02T06:48:48.133Z,67.45
2019-05-02T06:49:24.308Z,67.82
2019-05-02T06:49:56.184Z,70.70
2019-05-02T06:50:33.264Z,67.42
2019-05-02T06:51:10.967Z,67.05
2019-05-02T06:51:42.347Z,66.77
2019-05-02T06:52:15.409Z,68.80
2019-05-02T06:52:48.355Z,66.97
2019-05-02T06:53:21.415Z,67.40
2019-05-02T06:53:54.531Z,67.00
2019-05-02T06:54:27.881Z,66.35
2019-05-02T06:55:00.877Z,66.57
2019-05-02T06:55:36.566Z,66.47
2019-05-02T06:56:12.621Z,65.50
2019-05-02T06:56:47.959Z,67.12
2019-05-02T06:57:23.581Z,66.53
2019-05-02T06:57:57.002Z,66.92
2019-05-02T06:58:28.806Z,65.70
2019-05-02T06:59:03.209Z,66.97
2019-05-02T06:59:36.238Z,65.87
2019-05-02T07:00:10.727Z,64.80
2019-05-02T07:00:56.851Z,65.78
2019-05-02T07:01:21.442Z,66.30
2019-05-02T07:01:57.400Z,67.55
2019-05-02T07:02:33.559Z,67.37
2019-05-02T07:03:09.626Z,64.87
2019-05-02T07:03:41.455Z,66.97
2019-05-02T07:04:17.381Z,67.00
2019-05-02T07:04:49.505Z,66.75
2019-05-02T07:05:27.151Z,65.57
2019-05-02T07:05:58.846Z,67.30
2019-05-02T07:06:40.110Z,66.87
2019-05-02T07:07:07.358Z,65.47
2019-05-02T07:07:40.509Z,66.70
2019-05-02T07:08:14.228Z,65.97
2019-05-02T07:08:47.308Z,66.37
2019-05-02T07:09:20.691Z,65.92
2019-05-02T07:09:53.857Z,65.75
2019-05-02T07:10:29.822Z,67.15
2019-05-02T07:11:03.204Z,65.87
2019-05-02T07:11:39.037Z,67.50
2019-05-02T07:12:14.831Z,66.45
2019-05-02T07:12:51.281Z,65.83
2019-05-02T07:13:25.271Z,65.50
2019-05-02T07:14:12.125Z,65.57
2019-05-02T07:14:33.472Z,66.33
2019-05-02T07:15:15.551Z,67.20
2019-05-02T07:16:36.855Z,66.55
2019-05-02T07:17:05.311Z,65.15
2019-05-02T07:17:40.678Z,65.95
2019-05-02T07:18:15.159Z,65.57
2019-05-02T07:18:54.705Z,65.97
2019-05-02T07:19:30.853Z,65.05
2019-05-02T07:20:05.356Z,67.03
2019-05-02T07:20:40.464Z,66.57
2019-05-02T07:21:17.835Z,66.47
2019-05-02T07:21:53.075Z,66.77
2019-05-02T07:22:25.063Z,65.97
2019-05-02T07:22:58.115Z,66.12
2019-05-02T07:23:31.471Z,67.05
2019-05-02T07:24:06.137Z,66.02
2019-05-02T07:24:40.169Z,68.02
2019-05-02T07:25:16.344Z,67.30
2019-05-02T07:25:49.514Z,67.42
2019-05-02T07:26:23.370Z,67.20
2019-05-02T07:26:57.033Z,66.20
2019-05-02T07:27:33.625Z,66.47
2019-05-02T07:28:09.373Z,68.47
2019-05-02T07:28:45.702Z,67.75
2019-05-02T07:29:16.992Z,66.85
2019-05-02T07:29:52.207Z,67.80
2019-05-02T07:30:30.049Z,66.55
2019-05-02T07:31:01.149Z,65.97
2019-05-02T07:31:34.171Z,67.12
2019-05-02T07:32:07.375Z,68.20
2019-05-02T07:32:40.541Z,66.62
2019-05-02T07:33:14.963Z,67.27
2019-05-02T07:33:48.017Z,68.07
2019-05-02T07:34:21.053Z,67.62